sensor_id;sensor_type;location;lat;lon;timestamp;temperature;humidity
3348;DHT22;1687;49.540;8.574;2023-04-05T00:01:41;5.80;40.30
3348;DHT22;1687;49.540;8.574;2023-04-05T00:04:07;5.70;40.70
3348;DHT22;1687;49.540;8.574;2023-04-05T00:06:33;5.60;40.80
3348;DHT22;1687;49.540;8.574;2023-04-05T00:09:01;5.50;40.90
3348;DHT22;1687;49.540;8.574;2023-04-05T00:11:29;5.40;40.80
3348;DHT22;1687;49.540;8.574;2023-04-05T00:13:58;5.30;41.00
3348;DHT22;1687;49.540;8.574;2023-04-05T00:16:26;5.30;41.20
3348;DHT22;1687;49.540;8.574;2023-04-05T00:18:53;5.20;41.40
3348;DHT22;1687;49.540;8.574;2023-04-05T00:21:21;5.20;41.50
3348;DHT22;1687;49.540;8.574;2023-04-05T00:23:48;5.20;41.60
3348;DHT22;1687;49.540;8.574;2023-04-05T00:26:16;5.00;41.50
3348;DHT22;1687;49.540;8.574;2023-04-05T00:28:42;4.80;41.40
3348;DHT22;1687;49.540;8.574;2023-04-05T00:31:08;4.70;41.60
3348;DHT22;1687;49.540;8.574;2023-04-05T00:33:34;4.50;41.70
3348;DHT22;1687;49.540;8.574;2023-04-05T00:36:17;4.60;42.10
3348;DHT22;1687;49.540;8.574;2023-04-05T00:38:46;4.50;42.10
3348;DHT22;1687;49.540;8.574;2023-04-05T00:41:12;4.60;42.30
3348;DHT22;1687;49.540;8.574;2023-04-05T00:43:38;4.60;42.50
3348;DHT22;1687;49.540;8.574;2023-04-05T00:46:06;4.60;42.50
3348;DHT22;1687;49.540;8.574;2023-04-05T00:48:32;4.70;42.60
3348;DHT22;1687;49.540;8.574;2023-04-05T00:50:59;4.70;42.70
3348;DHT22;1687;49.540;8.574;2023-04-05T00:53:26;4.70;42.70
3348;DHT22;1687;49.540;8.574;2023-04-05T00:55:52;4.60;42.70
3348;DHT22;1687;49.540;8.574;2023-04-05T00:58:19;4.60;42.90
3348;DHT22;1687;49.540;8.574;2023-04-05T01:03:50;4.50;42.90
3348;DHT22;1687;49.540;8.574;2023-04-05T01:09:38;4.20;42.80
3348;DHT22;1687;49.540;8.574;2023-04-05T01:12:14;4.10;42.80
3348;DHT22;1687;49.540;8.574;2023-04-05T01:14:47;3.90;42.90
3348;DHT22;1687;49.540;8.574;2023-04-05T01:17:15;4.00;43.40
3348;DHT22;1687;49.540;8.574;2023-04-05T01:19:47;4.00;43.40
3348;DHT22;1687;49.540;8.574;2023-04-05T01:26:22;4.20;43.70
3348;DHT22;1687;49.540;8.574;2023-04-05T01:32:04;4.40;43.80
3348;DHT22;1687;49.540;8.574;2023-04-05T01:34:55;4.50;44.00
3348;DHT22;1687;49.540;8.574;2023-04-05T01:37:30;4.50;43.90
3348;DHT22;1687;49.540;8.574;2023-04-05T01:39:58;4.50;44.00
3348;DHT22;1687;49.540;8.574;2023-04-05T01:42:25;4.40;44.00
3348;DHT22;1687;49.540;8.574;2023-04-05T01:44:52;4.40;44.00
3348;DHT22;1687;49.540;8.574;2023-04-05T01:47:18;4.50;44.10
3348;DHT22;1687;49.540;8.574;2023-04-05T01:49:45;4.40;44.10
3348;DHT22;1687;49.540;8.574;2023-04-05T01:52:11;4.50;44.10
3348;DHT22;1687;49.540;8.574;2023-04-05T01:54:37;4.50;44.20
3348;DHT22;1687;49.540;8.574;2023-04-05T01:57:04;4.40;44.10
3348;DHT22;1687;49.540;8.574;2023-04-05T01:59:29;4.30;44.00
3348;DHT22;1687;49.540;8.574;2023-04-05T02:01:55;4.20;43.90
3348;DHT22;1687;49.540;8.574;2023-04-05T02:04:21;4.00;44.00
3348;DHT22;1687;49.540;8.574;2023-04-05T02:06:47;4.00;44.20
3348;DHT22;1687;49.540;8.574;2023-04-05T02:09:12;4.00;44.30
3348;DHT22;1687;49.540;8.574;2023-04-05T02:11:38;4.00;44.40
3348;DHT22;1687;49.540;8.574;2023-04-05T02:14:04;4.00;44.40
3348;DHT22;1687;49.540;8.574;2023-04-05T02:16:29;3.90;44.40
3348;DHT22;1687;49.540;8.574;2023-04-05T02:18:57;3.90;45.00
3348;DHT22;1687;49.540;8.574;2023-04-05T02:21:24;3.90;44.60
3348;DHT22;1687;49.540;8.574;2023-04-05T02:23:51;3.90;44.70
3348;DHT22;1687;49.540;8.574;2023-04-05T02:26:17;4.00;44.80
3348;DHT22;1687;49.540;8.574;2023-04-05T02:28:43;4.00;44.90
3348;DHT22;1687;49.540;8.574;2023-04-05T02:31:10;4.00;44.80
3348;DHT22;1687;49.540;8.574;2023-04-05T02:33:37;4.00;44.90
3348;DHT22;1687;49.540;8.574;2023-04-05T02:36:04;4.00;45.00
3348;DHT22;1687;49.540;8.574;2023-04-05T02:38:32;4.00;45.00
3348;DHT22;1687;49.540;8.574;2023-04-05T02:40:58;3.90;44.90
3348;DHT22;1687;49.540;8.574;2023-04-05T02:43:24;3.90;45.60
3348;DHT22;1687;49.540;8.574;2023-04-05T02:45:50;3.90;45.10
3348;DHT22;1687;49.540;8.574;2023-04-05T02:48:16;3.90;45.10
3348;DHT22;1687;49.540;8.574;2023-04-05T02:50:49;3.80;45.00
3348;DHT22;1687;49.540;8.574;2023-04-05T02:53:18;3.80;45.20
3348;DHT22;1687;49.540;8.574;2023-04-05T02:55:54;3.80;45.20
3348;DHT22;1687;49.540;8.574;2023-04-05T02:58:21;3.80;45.30
3348;DHT22;1687;49.540;8.574;2023-04-05T03:00:48;3.80;45.40
3348;DHT22;1687;49.540;8.574;2023-04-05T03:03:17;3.70;45.30
3348;DHT22;1687;49.540;8.574;2023-04-05T03:05:43;3.70;45.40
3348;DHT22;1687;49.540;8.574;2023-04-05T03:08:09;3.70;45.40
3348;DHT22;1687;49.540;8.574;2023-04-05T03:10:44;3.60;45.20
3348;DHT22;1687;49.540;8.574;2023-04-05T03:13:10;3.50;45.10
3348;DHT22;1687;49.540;8.574;2023-04-05T03:15:36;3.40;45.20
3348;DHT22;1687;49.540;8.574;2023-04-05T03:18:02;3.30;45.40
3348;DHT22;1687;49.540;8.574;2023-04-05T03:20:27;3.30;45.40
3348;DHT22;1687;49.540;8.574;2023-04-05T03:22:53;3.30;45.60
3348;DHT22;1687;49.540;8.574;2023-04-05T03:25:19;3.30;45.70
3348;DHT22;1687;49.540;8.574;2023-04-05T03:27:44;3.30;45.70
3348;DHT22;1687;49.540;8.574;2023-04-05T03:30:11;3.30;45.80
3348;DHT22;1687;49.540;8.574;2023-04-05T03:32:36;3.30;45.70
3348;DHT22;1687;49.540;8.574;2023-04-05T03:35:02;3.30;45.80
3348;DHT22;1687;49.540;8.574;2023-04-05T03:37:28;3.30;45.90
3348;DHT22;1687;49.540;8.574;2023-04-05T03:39:54;3.30;45.90
3348;DHT22;1687;49.540;8.574;2023-04-05T03:42:19;3.30;45.90
3348;DHT22;1687;49.540;8.574;2023-04-05T03:44:45;3.20;45.90
3348;DHT22;1687;49.540;8.574;2023-04-05T03:47:12;3.20;46.00
3348;DHT22;1687;49.540;8.574;2023-04-05T03:49:37;3.20;46.00
3348;DHT22;1687;49.540;8.574;2023-04-05T03:52:03;3.20;46.20
3348;DHT22;1687;49.540;8.574;2023-04-05T03:54:29;3.20;46.20
3348;DHT22;1687;49.540;8.574;2023-04-05T03:56:54;3.30;46.30
3348;DHT22;1687;49.540;8.574;2023-04-05T03:59:21;3.20;46.20
3348;DHT22;1687;49.540;8.574;2023-04-05T04:01:46;3.10;46.20
3348;DHT22;1687;49.540;8.574;2023-04-05T04:04:12;3.20;46.40
3348;DHT22;1687;49.540;8.574;2023-04-05T04:06:38;3.20;46.50
3348;DHT22;1687;49.540;8.574;2023-04-05T04:09:03;3.20;46.50
3348;DHT22;1687;49.540;8.574;2023-04-05T04:11:30;3.30;46.60
3348;DHT22;1687;49.540;8.574;2023-04-05T04:13:56;3.30;46.60
3348;DHT22;1687;49.540;8.574;2023-04-05T04:16:21;3.40;46.80
3348;DHT22;1687;49.540;8.574;2023-04-05T04:18:47;3.40;46.70
3348;DHT22;1687;49.540;8.574;2023-04-05T04:21:13;3.40;46.70
3348;DHT22;1687;49.540;8.574;2023-04-05T04:23:41;3.30;46.50
3348;DHT22;1687;49.540;8.574;2023-04-05T04:26:10;3.30;46.70
3348;DHT22;1687;49.540;8.574;2023-04-05T04:28:36;3.30;46.80
3348;DHT22;1687;49.540;8.574;2023-04-05T04:31:03;3.30;46.90
3348;DHT22;1687;49.540;8.574;2023-04-05T04:33:29;3.20;46.80
3348;DHT22;1687;49.540;8.574;2023-04-05T04:35:55;3.10;46.60
3348;DHT22;1687;49.540;8.574;2023-04-05T04:38:21;3.10;46.80
3348;DHT22;1687;49.540;8.574;2023-04-05T04:40:50;3.10;46.90
3348;DHT22;1687;49.540;8.574;2023-04-05T04:43:18;3.10;47.00
3348;DHT22;1687;49.540;8.574;2023-04-05T04:45:47;3.20;47.20
3348;DHT22;1687;49.540;8.574;2023-04-05T04:48:15;3.20;47.20
3348;DHT22;1687;49.540;8.574;2023-04-05T04:50:42;3.20;47.20
3348;DHT22;1687;49.540;8.574;2023-04-05T04:53:11;3.20;47.30
3348;DHT22;1687;49.540;8.574;2023-04-05T04:55:38;3.20;47.40
3348;DHT22;1687;49.540;8.574;2023-04-05T04:58:07;3.20;47.40
3348;DHT22;1687;49.540;8.574;2023-04-05T05:00:40;3.20;47.30
3348;DHT22;1687;49.540;8.574;2023-04-05T05:03:09;3.20;47.40
3348;DHT22;1687;49.540;8.574;2023-04-05T05:05:41;3.20;47.50
3348;DHT22;1687;49.540;8.574;2023-04-05T05:08:11;3.10;47.40
3348;DHT22;1687;49.540;8.574;2023-04-05T05:10:37;3.10;47.50
3348;DHT22;1687;49.540;8.574;2023-04-05T05:13:03;3.10;47.60
3348;DHT22;1687;49.540;8.574;2023-04-05T05:15:29;3.10;47.60
3348;DHT22;1687;49.540;8.574;2023-04-05T05:17:55;3.10;47.70
3348;DHT22;1687;49.540;8.574;2023-04-05T05:20:25;3.10;47.80
3348;DHT22;1687;49.540;8.574;2023-04-05T05:22:53;3.10;47.80
3348;DHT22;1687;49.540;8.574;2023-04-05T05:25:19;3.10;47.90
3348;DHT22;1687;49.540;8.574;2023-04-05T05:27:48;3.20;48.00
3348;DHT22;1687;49.540;8.574;2023-04-05T05:30:15;3.20;48.00
3348;DHT22;1687;49.540;8.574;2023-04-05T05:32:41;3.20;48.00
3348;DHT22;1687;49.540;8.574;2023-04-05T05:35:07;3.30;48.10
3348;DHT22;1687;49.540;8.574;2023-04-05T05:37:34;3.30;48.20
3348;DHT22;1687;49.540;8.574;2023-04-05T05:40:00;3.40;48.40
3348;DHT22;1687;49.540;8.574;2023-04-05T05:42:26;3.60;48.40
3348;DHT22;1687;49.540;8.574;2023-04-05T05:44:52;3.60;48.40
3348;DHT22;1687;49.540;8.574;2023-04-05T05:47:18;3.70;48.40
3348;DHT22;1687;49.540;8.574;2023-04-05T05:49:44;3.70;48.30
3348;DHT22;1687;49.540;8.574;2023-04-05T05:52:09;3.70;48.20
3348;DHT22;1687;49.540;8.574;2023-04-05T05:54:35;3.60;48.10
3348;DHT22;1687;49.540;8.574;2023-04-05T05:57:01;3.50;48.20
3348;DHT22;1687;49.540;8.574;2023-04-05T05:59:27;3.30;48.10
3348;DHT22;1687;49.540;8.574;2023-04-05T06:01:53;3.20;48.10
3348;DHT22;1687;49.540;8.574;2023-04-05T06:04:19;3.20;48.40
3348;DHT22;1687;49.540;8.574;2023-04-05T06:06:45;3.20;48.40
3348;DHT22;1687;49.540;8.574;2023-04-05T06:09:13;3.20;48.60
3348;DHT22;1687;49.540;8.574;2023-04-05T06:11:40;3.30;48.70
3348;DHT22;1687;49.540;8.574;2023-04-05T06:14:06;3.40;48.70
3348;DHT22;1687;49.540;8.574;2023-04-05T06:16:32;3.40;48.70
3348;DHT22;1687;49.540;8.574;2023-04-05T06:18:59;3.40;48.70
3348;DHT22;1687;49.540;8.574;2023-04-05T06:21:25;3.50;48.90
3348;DHT22;1687;49.540;8.574;2023-04-05T06:23:51;3.60;49.10
3348;DHT22;1687;49.540;8.574;2023-04-05T06:26:22;3.70;49.10
3348;DHT22;1687;49.540;8.574;2023-04-05T06:28:53;3.80;49.20
3348;DHT22;1687;49.540;8.574;2023-04-05T06:31:20;4.00;49.30
3348;DHT22;1687;49.540;8.574;2023-04-05T06:33:59;4.10;49.40
3348;DHT22;1687;49.540;8.574;2023-04-05T06:36:25;4.30;49.40
3348;DHT22;1687;49.540;8.574;2023-04-05T06:38:51;4.40;49.30
3348;DHT22;1687;49.540;8.574;2023-04-05T06:41:17;4.50;49.40
3348;DHT22;1687;49.540;8.574;2023-04-05T06:43:43;4.60;49.40
3348;DHT22;1687;49.540;8.574;2023-04-05T06:46:09;4.70;49.30
3348;DHT22;1687;49.540;8.574;2023-04-05T06:48:37;4.70;49.30
3348;DHT22;1687;49.540;8.574;2023-04-05T06:51:04;4.80;49.40
3348;DHT22;1687;49.540;8.574;2023-04-05T06:53:30;4.90;49.50
3348;DHT22;1687;49.540;8.574;2023-04-05T06:55:57;5.10;49.60
3348;DHT22;1687;49.540;8.574;2023-04-05T06:58:24;5.20;49.40
3348;DHT22;1687;49.540;8.574;2023-04-05T07:00:54;5.30;49.40
3348;DHT22;1687;49.540;8.574;2023-04-05T07:03:20;5.20;49.20
3348;DHT22;1687;49.540;8.574;2023-04-05T07:05:53;5.30;49.30
3348;DHT22;1687;49.540;8.574;2023-04-05T07:08:21;5.40;49.40
3348;DHT22;1687;49.540;8.574;2023-04-05T07:10:47;5.40;49.30
3348;DHT22;1687;49.540;8.574;2023-04-05T07:13:14;5.50;49.20
3348;DHT22;1687;49.540;8.574;2023-04-05T07:15:41;5.60;49.20
3348;DHT22;1687;49.540;8.574;2023-04-05T07:18:08;5.70;49.30
3348;DHT22;1687;49.540;8.574;2023-04-05T07:20:34;5.80;49.50
3348;DHT22;1687;49.540;8.574;2023-04-05T07:23:00;5.90;49.30
3348;DHT22;1687;49.540;8.574;2023-04-05T07:25:26;6.10;49.40
3348;DHT22;1687;49.540;8.574;2023-04-05T07:27:52;6.20;49.20
3348;DHT22;1687;49.540;8.574;2023-04-05T07:30:17;6.30;49.30
3348;DHT22;1687;49.540;8.574;2023-04-05T07:32:43;6.40;49.20
3348;DHT22;1687;49.540;8.574;2023-04-05T07:35:09;6.50;49.10
3348;DHT22;1687;49.540;8.574;2023-04-05T07:37:35;6.60;49.10
3348;DHT22;1687;49.540;8.574;2023-04-05T07:40:01;6.70;49.10
3348;DHT22;1687;49.540;8.574;2023-04-05T07:42:28;6.80;49.00
3348;DHT22;1687;49.540;8.574;2023-04-05T07:44:53;6.90;48.90
3348;DHT22;1687;49.540;8.574;2023-04-05T07:47:19;7.00;48.90
3348;DHT22;1687;49.540;8.574;2023-04-05T07:49:45;7.10;48.80
3348;DHT22;1687;49.540;8.574;2023-04-05T07:52:10;7.20;48.70
3348;DHT22;1687;49.540;8.574;2023-04-05T07:54:36;7.30;48.70
3348;DHT22;1687;49.540;8.574;2023-04-05T07:57:07;7.40;48.60
3348;DHT22;1687;49.540;8.574;2023-04-05T07:59:34;7.50;48.40
3348;DHT22;1687;49.540;8.574;2023-04-05T08:02:00;7.40;48.20
3348;DHT22;1687;49.540;8.574;2023-04-05T08:04:26;7.40;48.30
3348;DHT22;1687;49.540;8.574;2023-04-05T08:06:51;7.60;48.40
3348;DHT22;1687;49.540;8.574;2023-04-05T08:09:17;7.70;48.30
3348;DHT22;1687;49.540;8.574;2023-04-05T08:11:44;7.80;48.30
3348;DHT22;1687;49.540;8.574;2023-04-05T08:14:09;7.90;48.20
3348;DHT22;1687;49.540;8.574;2023-04-05T08:16:35;8.00;48.00
3348;DHT22;1687;49.540;8.574;2023-04-05T08:19:01;8.10;48.10
3348;DHT22;1687;49.540;8.574;2023-04-05T08:21:27;8.20;48.10
3348;DHT22;1687;49.540;8.574;2023-04-05T08:23:52;8.30;48.00
3348;DHT22;1687;49.540;8.574;2023-04-05T08:26:18;8.50;48.00
3348;DHT22;1687;49.540;8.574;2023-04-05T08:28:44;8.60;47.90
3348;DHT22;1687;49.540;8.574;2023-04-05T08:31:09;8.50;47.50
3348;DHT22;1687;49.540;8.574;2023-04-05T08:33:36;8.50;47.40
3348;DHT22;1687;49.540;8.574;2023-04-05T08:36:06;8.70;47.60
3348;DHT22;1687;49.540;8.574;2023-04-05T08:38:33;8.70;47.40
3348;DHT22;1687;49.540;8.574;2023-04-05T08:41:13;8.80;47.30
3348;DHT22;1687;49.540;8.574;2023-04-05T08:43:55;9.00;47.40
3348;DHT22;1687;49.540;8.574;2023-04-05T08:46:23;9.10;47.30
3348;DHT22;1687;49.540;8.574;2023-04-05T08:48:49;9.20;47.10
3348;DHT22;1687;49.540;8.574;2023-04-05T08:51:20;9.30;47.10
3348;DHT22;1687;49.540;8.574;2023-04-05T08:53:46;9.50;47.00
3348;DHT22;1687;49.540;8.574;2023-04-05T08:56:15;9.50;46.90
3348;DHT22;1687;49.540;8.574;2023-04-05T08:59:16;9.60;46.80
3348;DHT22;1687;49.540;8.574;2023-04-05T09:01:44;9.80;47.00
3348;DHT22;1687;49.540;8.574;2023-04-05T09:04:22;10.00;46.00
3348;DHT22;1687;49.540;8.574;2023-04-05T09:06:50;10.10;45.70
3348;DHT22;1687;49.540;8.574;2023-04-05T09:09:17;10.30;45.80
3348;DHT22;1687;49.540;8.574;2023-04-05T09:11:45;10.40;45.70
3348;DHT22;1687;49.540;8.574;2023-04-05T09:14:11;10.60;45.60
3348;DHT22;1687;49.540;8.574;2023-04-05T09:16:38;10.60;45.20
3348;DHT22;1687;49.540;8.574;2023-04-05T09:19:05;10.60;45.10
3348;DHT22;1687;49.540;8.574;2023-04-05T09:22:01;10.80;45.20
3348;DHT22;1687;49.540;8.574;2023-04-05T09:24:41;10.80;44.90
3348;DHT22;1687;49.540;8.574;2023-04-05T09:27:10;11.00;45.00
3348;DHT22;1687;49.540;8.574;2023-04-05T09:29:46;11.10;44.90
3348;DHT22;1687;49.540;8.574;2023-04-05T09:32:14;11.30;44.70
3348;DHT22;1687;49.540;8.574;2023-04-05T09:34:42;11.30;44.50
3348;DHT22;1687;49.540;8.574;2023-04-05T09:39:38;11.50;44.30
3348;DHT22;1687;49.540;8.574;2023-04-05T09:42:09;11.70;44.30
3348;DHT22;1687;49.540;8.574;2023-04-05T09:47:20;11.60;43.60
3348;DHT22;1687;49.540;8.574;2023-04-05T09:49:50;11.50;43.30
3348;DHT22;1687;49.540;8.574;2023-04-05T09:52:23;11.40;43.20
3348;DHT22;1687;49.540;8.574;2023-04-05T09:54:55;11.40;43.00
3348;DHT22;1687;49.540;8.574;2023-04-05T09:57:22;11.30;42.80
3348;DHT22;1687;49.540;8.574;2023-04-05T09:59:50;10.90;42.30
3348;DHT22;1687;49.540;8.574;2023-04-05T10:02:16;10.90;42.30
3348;DHT22;1687;49.540;8.574;2023-04-05T10:04:44;10.80;42.10
3348;DHT22;1687;49.540;8.574;2023-04-05T10:07:13;10.70;42.00
3348;DHT22;1687;49.540;8.574;2023-04-05T10:09:41;11.00;42.40
3348;DHT22;1687;49.540;8.574;2023-04-05T10:12:09;11.10;42.10
3348;DHT22;1687;49.540;8.574;2023-04-05T10:14:36;11.20;42.10
3348;DHT22;1687;49.540;8.574;2023-04-05T10:17:12;11.30;42.00
3348;DHT22;1687;49.540;8.574;2023-04-05T10:23:09;11.40;41.60
3348;DHT22;1687;49.540;8.574;2023-04-05T10:28:35;11.40;41.30
3348;DHT22;1687;49.540;8.574;2023-04-05T10:31:22;11.40;41.40
3348;DHT22;1687;49.540;8.574;2023-04-05T10:33:58;11.50;41.40
3348;DHT22;1687;49.540;8.574;2023-04-05T10:36:57;11.70;41.30
3348;DHT22;1687;49.540;8.574;2023-04-05T10:39:32;11.70;40.80
3348;DHT22;1687;49.540;8.574;2023-04-05T10:42:24;11.40;40.50
3348;DHT22;1687;49.540;8.574;2023-04-05T10:44:51;11.40;40.60
3348;DHT22;1687;49.540;8.574;2023-04-05T10:47:22;11.30;40.40
3348;DHT22;1687;49.540;8.574;2023-04-05T10:49:53;11.20;40.30
3348;DHT22;1687;49.540;8.574;2023-04-05T10:52:21;11.30;40.30
3348;DHT22;1687;49.540;8.574;2023-04-05T10:54:48;11.30;40.20
3348;DHT22;1687;49.540;8.574;2023-04-05T10:57:14;11.40;40.30
3348;DHT22;1687;49.540;8.574;2023-04-05T10:59:44;11.40;40.30
3348;DHT22;1687;49.540;8.574;2023-04-05T11:02:11;11.50;40.10
3348;DHT22;1687;49.540;8.574;2023-04-05T11:04:39;11.50;40.10
3348;DHT22;1687;49.540;8.574;2023-04-05T11:07:12;11.70;40.30
3348;DHT22;1687;49.540;8.574;2023-04-05T11:20:46;11.70;39.90
3348;DHT22;1687;49.540;8.574;2023-04-05T11:23:23;11.90;40.00
3348;DHT22;1687;49.540;8.574;2023-04-05T11:25:54;11.90;39.80
3348;DHT22;1687;49.540;8.574;2023-04-05T11:28:34;12.00;39.80
3348;DHT22;1687;49.540;8.574;2023-04-05T11:31:15;12.00;39.60
3348;DHT22;1687;49.540;8.574;2023-04-05T11:34:05;12.00;39.70
3348;DHT22;1687;49.540;8.574;2023-04-05T11:36:47;12.00;39.60
3348;DHT22;1687;49.540;8.574;2023-04-05T11:44:45;12.00;39.30
3348;DHT22;1687;49.540;8.574;2023-04-05T11:47:15;12.10;39.50
3348;DHT22;1687;49.540;8.574;2023-04-05T11:49:41;12.10;39.30
3348;DHT22;1687;49.540;8.574;2023-04-05T11:52:15;12.20;39.40
3348;DHT22;1687;49.540;8.574;2023-04-05T11:54:45;12.30;39.50
3348;DHT22;1687;49.540;8.574;2023-04-05T11:57:12;12.30;39.30
3348;DHT22;1687;49.540;8.574;2023-04-05T11:59:39;12.40;39.50
3348;DHT22;1687;49.540;8.574;2023-04-05T12:02:05;12.50;39.50
3348;DHT22;1687;49.540;8.574;2023-04-05T12:04:35;12.70;39.50
3348;DHT22;1687;49.540;8.574;2023-04-05T12:07:27;12.70;39.40
3348;DHT22;1687;49.540;8.574;2023-04-05T12:12:39;12.60;39.00
3348;DHT22;1687;49.540;8.574;2023-04-05T12:15:07;12.40;38.70
3348;DHT22;1687;49.540;8.574;2023-04-05T12:20:18;12.50;39.10
3348;DHT22;1687;49.540;8.574;2023-04-05T12:22:48;12.60;39.00
3348;DHT22;1687;49.540;8.574;2023-04-05T12:25:19;12.50;38.80
3348;DHT22;1687;49.540;8.574;2023-04-05T12:27:46;12.60;39.00
3348;DHT22;1687;49.540;8.574;2023-04-05T12:32:54;12.60;38.60
3348;DHT22;1687;49.540;8.574;2023-04-05T12:35:23;12.60;38.60
3348;DHT22;1687;49.540;8.574;2023-04-05T12:37:51;12.80;39.00
3348;DHT22;1687;49.540;8.574;2023-04-05T12:40:21;13.00;38.90
3348;DHT22;1687;49.540;8.574;2023-04-05T12:42:48;13.30;39.00
3348;DHT22;1687;49.540;8.574;2023-04-05T12:45:14;13.40;38.80
3348;DHT22;1687;49.540;8.574;2023-04-05T12:47:55;13.50;38.90
3348;DHT22;1687;49.540;8.574;2023-04-05T12:50:27;13.70;38.90
3348;DHT22;1687;49.540;8.574;2023-04-05T12:55:20;13.90;38.60
3348;DHT22;1687;49.540;8.574;2023-04-05T12:57:54;13.90;38.50
3348;DHT22;1687;49.540;8.574;2023-04-05T13:00:24;13.70;38.10
3348;DHT22;1687;49.540;8.574;2023-04-05T13:02:51;13.50;38.00
3348;DHT22;1687;49.540;8.574;2023-04-05T13:05:19;13.60;38.30
3348;DHT22;1687;49.540;8.574;2023-04-05T13:07:49;13.70;38.30
3348;DHT22;1687;49.540;8.574;2023-04-05T13:10:15;13.90;38.40
3348;DHT22;1687;49.540;8.574;2023-04-05T13:12:42;14.00;38.20
3348;DHT22;1687;49.540;8.574;2023-04-05T13:15:08;13.90;38.10
3348;DHT22;1687;49.540;8.574;2023-04-05T13:17:34;13.70;37.70
3348;DHT22;1687;49.540;8.574;2023-04-05T13:20:00;13.60;37.70
3348;DHT22;1687;49.540;8.574;2023-04-05T13:22:25;13.50;37.80
3348;DHT22;1687;49.540;8.574;2023-04-05T13:24:51;13.30;37.60
3348;DHT22;1687;49.540;8.574;2023-04-05T13:27:18;13.30;37.80
3348;DHT22;1687;49.540;8.574;2023-04-05T13:29:46;13.20;37.70
3348;DHT22;1687;49.540;8.574;2023-04-05T13:32:12;13.30;37.80
3348;DHT22;1687;49.540;8.574;2023-04-05T13:34:37;13.20;37.50
3348;DHT22;1687;49.540;8.574;2023-04-05T13:37:03;13.20;37.60
3348;DHT22;1687;49.540;8.574;2023-04-05T13:39:29;13.20;37.60
3348;DHT22;1687;49.540;8.574;2023-04-05T13:41:55;13.40;37.90
3348;DHT22;1687;49.540;8.574;2023-04-05T13:44:22;13.50;37.80
3348;DHT22;1687;49.540;8.574;2023-04-05T13:46:47;13.60;37.80
3348;DHT22;1687;49.540;8.574;2023-04-05T13:49:13;13.80;37.90
3348;DHT22;1687;49.540;8.574;2023-04-05T13:51:39;14.10;38.00
3348;DHT22;1687;49.540;8.574;2023-04-05T13:54:08;13.90;37.50
3348;DHT22;1687;49.540;8.574;2023-04-05T13:56:39;13.90;37.50
3348;DHT22;1687;49.540;8.574;2023-04-05T13:59:04;13.80;37.40
3348;DHT22;1687;49.540;8.574;2023-04-05T14:01:32;13.80;37.40
3348;DHT22;1687;49.540;8.574;2023-04-05T14:03:58;13.70;37.30
3348;DHT22;1687;49.540;8.574;2023-04-05T14:06:24;13.50;36.90
3348;DHT22;1687;49.540;8.574;2023-04-05T14:08:49;13.40;37.00
3348;DHT22;1687;49.540;8.574;2023-04-05T14:11:20;13.50;37.20
3348;DHT22;1687;49.540;8.574;2023-04-05T14:13:49;13.50;37.10
3348;DHT22;1687;49.540;8.574;2023-04-05T14:16:15;13.60;37.20
3348;DHT22;1687;49.540;8.574;2023-04-05T14:18:41;14.10;37.60
3348;DHT22;1687;49.540;8.574;2023-04-05T14:21:07;14.90;37.50
3348;DHT22;1687;49.540;8.574;2023-04-05T14:23:32;15.80;37.80
3348;DHT22;1687;49.540;8.574;2023-04-05T14:25:58;17.30;38.30
3348;DHT22;1687;49.540;8.574;2023-04-05T14:28:24;18.20;37.40
3348;DHT22;1687;49.540;8.574;2023-04-05T14:30:50;19.20;37.60
3348;DHT22;1687;49.540;8.574;2023-04-05T14:33:16;20.50;37.80
3348;DHT22;1687;49.540;8.574;2023-04-05T14:35:42;21.60;37.60
3348;DHT22;1687;49.540;8.574;2023-04-05T14:38:08;22.40;36.90
3348;DHT22;1687;49.540;8.574;2023-04-05T14:40:34;22.80;36.30
3348;DHT22;1687;49.540;8.574;2023-04-05T14:42:59;23.40;36.50
3348;DHT22;1687;49.540;8.574;2023-04-05T14:45:25;23.70;36.20
3348;DHT22;1687;49.540;8.574;2023-04-05T14:47:52;22.70;34.80
3348;DHT22;1687;49.540;8.574;2023-04-05T14:50:19;22.70;35.60
3348;DHT22;1687;49.540;8.574;2023-04-05T14:52:44;23.50;35.50
3348;DHT22;1687;49.540;8.574;2023-04-05T14:55:11;23.90;34.80
3348;DHT22;1687;49.540;8.574;2023-04-05T14:57:38;24.60;35.40
3348;DHT22;1687;49.540;8.574;2023-04-05T15:00:05;25.40;35.10
3348;DHT22;1687;49.540;8.574;2023-04-05T15:02:32;25.50;34.10
3348;DHT22;1687;49.540;8.574;2023-04-05T15:04:58;26.10;34.70
3348;DHT22;1687;49.540;8.574;2023-04-05T15:07:27;26.60;33.70
3348;DHT22;1687;49.540;8.574;2023-04-05T15:09:53;27.00;33.70
3348;DHT22;1687;49.540;8.574;2023-04-05T15:12:18;27.40;33.30
3348;DHT22;1687;49.540;8.574;2023-04-05T15:14:44;28.10;33.40
3348;DHT22;1687;49.540;8.574;2023-04-05T15:17:11;29.00;33.60
3348;DHT22;1687;49.540;8.574;2023-04-05T15:19:36;29.30;32.50
3348;DHT22;1687;49.540;8.574;2023-04-05T15:22:03;29.10;31.80
3348;DHT22;1687;49.540;8.574;2023-04-05T15:24:28;28.80;31.40
3348;DHT22;1687;49.540;8.574;2023-04-05T15:26:54;28.50;31.00
3348;DHT22;1687;49.540;8.574;2023-04-05T15:29:29;28.30;30.60
3348;DHT22;1687;49.540;8.574;2023-04-05T15:31:56;28.30;31.10
3348;DHT22;1687;49.540;8.574;2023-04-05T15:34:23;29.10;31.30
3348;DHT22;1687;49.540;8.574;2023-04-05T15:36:49;29.80;30.90
3348;DHT22;1687;49.540;8.574;2023-04-05T15:39:16;29.90;30.40
3348;DHT22;1687;49.540;8.574;2023-04-05T15:41:42;29.90;30.00
3348;DHT22;1687;49.540;8.574;2023-04-05T15:44:08;29.50;29.70
3348;DHT22;1687;49.540;8.574;2023-04-05T15:46:33;29.80;29.90
3348;DHT22;1687;49.540;8.574;2023-04-05T15:48:59;29.80;29.60
3348;DHT22;1687;49.540;8.574;2023-04-05T15:51:25;29.50;29.30
3348;DHT22;1687;49.540;8.574;2023-04-05T15:53:51;29.20;28.90
3348;DHT22;1687;49.540;8.574;2023-04-05T15:56:16;29.00;28.80
3348;DHT22;1687;49.540;8.574;2023-04-05T15:58:42;28.70;28.80
3348;DHT22;1687;49.540;8.574;2023-04-05T16:01:08;29.00;28.80
3348;DHT22;1687;49.540;8.574;2023-04-05T16:03:34;29.20;28.60
3348;DHT22;1687;49.540;8.574;2023-04-05T16:06:00;29.40;28.80
3348;DHT22;1687;49.540;8.574;2023-04-05T16:08:26;29.50;28.70
3348;DHT22;1687;49.540;8.574;2023-04-05T16:10:52;29.50;28.60
3348;DHT22;1687;49.540;8.574;2023-04-05T16:13:17;29.60;28.20
3348;DHT22;1687;49.540;8.574;2023-04-05T16:15:43;29.00;27.70
3348;DHT22;1687;49.540;8.574;2023-04-05T16:18:09;28.80;28.00
3348;DHT22;1687;49.540;8.574;2023-04-05T16:20:38;28.30;27.70
3348;DHT22;1687;49.540;8.574;2023-04-05T16:23:05;28.30;27.70
3348;DHT22;1687;49.540;8.574;2023-04-05T16:25:31;28.00;27.40
3348;DHT22;1687;49.540;8.574;2023-04-05T16:27:57;27.90;27.50
3348;DHT22;1687;49.540;8.574;2023-04-05T16:30:24;27.90;27.60
3348;DHT22;1687;49.540;8.574;2023-04-05T16:32:50;27.70;27.40
3348;DHT22;1687;49.540;8.574;2023-04-05T16:35:17;27.40;27.40
3348;DHT22;1687;49.540;8.574;2023-04-05T16:37:42;27.30;27.20
3348;DHT22;1687;49.540;8.574;2023-04-05T16:40:09;27.10;27.20
3348;DHT22;1687;49.540;8.574;2023-04-05T16:42:36;26.20;26.60
3348;DHT22;1687;49.540;8.574;2023-04-05T16:45:02;24.80;26.30
3348;DHT22;1687;49.540;8.574;2023-04-05T16:47:28;23.00;26.20
3348;DHT22;1687;49.540;8.574;2023-04-05T16:49:54;21.30;26.10
3348;DHT22;1687;49.540;8.574;2023-04-05T16:52:20;19.80;25.60
3348;DHT22;1687;49.540;8.574;2023-04-05T16:54:46;18.50;26.10
3348;DHT22;1687;49.540;8.574;2023-04-05T16:57:11;17.50;25.60
3348;DHT22;1687;49.540;8.574;2023-04-05T16:59:38;16.80;25.70
3348;DHT22;1687;49.540;8.574;2023-04-05T17:02:03;16.20;25.70
3348;DHT22;1687;49.540;8.574;2023-04-05T17:04:29;15.70;25.90
3348;DHT22;1687;49.540;8.574;2023-04-05T17:06:55;15.30;25.90